createdAt,value
2019-01-31T00:01:51.312Z,-0.30
2019-01-31T00:05:42.950Z,-0.30
2019-01-31T00:08:58.846Z,-0.38
2019-01-31T00:12:46.242Z,-0.38
2019-01-31T00:16:33.786Z,-0.31
2019-01-31T00:20:39.701Z,-0.27
2019-01-31T00:23:52.166Z,0.01
2019-01-31T00:27:35.748Z,-0.20
2019-01-31T00:31:20.886Z,-0.27
2019-01-31T00:35:35.981Z,-0.34
2019-01-31T00:39:00.547Z,-0.27
2019-01-31T00:42:40.726Z,-0.31
2019-01-31T00:46:14.598Z,-0.31
2019-01-31T00:49:52.192Z,-0.35
2019-01-31T00:53:06.009Z,-0.26
2019-01-31T00:56:37.226Z,-0.22
2019-01-31T01:00:02.260Z,-0.24
2019-01-31T01:03:43.256Z,-0.24
2019-01-31T01:07:18.121Z,-0.30
2019-01-31T01:10:30.216Z,-0.21
2019-01-31T01:14:02.868Z,-0.30
2019-01-31T01:17:19.309Z,-0.23
2019-01-31T01:20:51.091Z,-0.08
2019-01-31T01:24:31.501Z,-0.12
2019-01-31T01:27:57.198Z,-0.19
2019-01-31T01:31:14.526Z,-0.26
2019-01-31T01:34:47.977Z,-0.23
2019-01-31T01:38:30.317Z,-0.15
2019-01-31T01:42:07.665Z,-0.23
2019-01-31T01:45:45.427Z,-0.22
2019-01-31T01:49:25.046Z,0.05
2019-01-31T01:52:59.281Z,0.29
2019-01-31T01:56:33.516Z,0.28
2019-01-31T02:00:20.094Z,0.25
2019-01-31T02:04:12.898Z,0.24
2019-01-31T02:08:03.351Z,0.31
2019-01-31T02:11:47.922Z,0.36
2019-01-31T02:15:08.111Z,0.18
2019-01-31T02:18:25.687Z,0.18
2019-01-31T02:21:55.697Z,0.17
2019-01-31T02:25:07.640Z,0.10
2019-01-31T02:28:41.718Z,0.18
2019-01-31T02:32:09.668Z,0.10
2019-01-31T02:35:38.612Z,0.13
2019-01-31T02:39:20.063Z,0.17
2019-01-31T02:42:35.031Z,0.14
2019-01-31T02:46:21.576Z,0.16
2019-01-31T02:50:18.454Z,0.28
2019-01-31T02:53:31.713Z,0.31
2019-01-31T02:57:25.295Z,0.21
2019-01-31T03:01:06.167Z,0.25
2019-01-31T03:04:47.360Z,0.35
2019-01-31T03:08:18.341Z,0.32
2019-01-31T03:12:02.130Z,0.29
2019-01-31T03:15:20.262Z,0.32
2019-01-31T03:18:51.361Z,0.36
2019-01-31T03:22:19.956Z,0.43
2019-01-31T03:25:46.615Z,0.38
2019-01-31T03:29:46.229Z,0.45
2019-01-31T03:33:06.308Z,0.50
2019-01-31T03:36:31.589Z,0.49
2019-01-31T03:40:33.714Z,0.54
2019-01-31T03:43:54.967Z,0.53
2019-01-31T03:47:48.397Z,0.59
2019-01-31T03:51:25.897Z,0.60
2019-01-31T03:55:22.720Z,0.58
2019-01-31T03:58:38.092Z,0.59
2019-01-31T04:02:34.720Z,0.64
2019-01-31T04:05:57.593Z,0.58
2019-01-31T04:09:00.166Z,0.62
2019-01-31T04:12:02.836Z,0.60
2019-01-31T04:15:06.881Z,0.63
2019-01-31T04:18:09.550Z,0.62
2019-01-31T04:21:12.276Z,0.55
2019-01-31T04:24:14.827Z,0.61
2019-01-31T04:27:17.663Z,0.58
2019-01-31T04:30:20.826Z,0.60
2019-01-31T04:33:23.532Z,0.65
2019-01-31T04:36:26.130Z,0.60
2019-01-31T04:39:28.890Z,0.62
2019-01-31T04:42:31.450Z,0.65
2019-01-31T04:45:34.030Z,0.60
2019-01-31T04:48:36.729Z,0.60
2019-01-31T04:51:40.629Z,0.69
2019-01-31T04:54:43.324Z,0.61
2019-01-31T04:57:45.979Z,0.60
2019-01-31T05:00:48.573Z,0.53
2019-01-31T05:03:51.149Z,0.40
2019-01-31T05:06:53.732Z,0.45
2019-01-31T05:09:56.295Z,0.47
2019-01-31T05:12:58.889Z,0.34
2019-01-31T05:16:03.786Z,0.30
2019-01-31T05:19:06.161Z,0.36
2019-01-31T05:22:08.751Z,0.46
2019-01-31T05:25:12.384Z,0.28
2019-01-31T05:28:14.966Z,0.24
2019-01-31T05:31:17.583Z,0.18
2019-01-31T05:34:20.267Z,0.20
2019-01-31T05:37:25.925Z,0.05
2019-01-31T05:40:28.587Z,-0.16
2019-01-31T05:43:31.311Z,-0.29
2019-01-31T05:46:35.012Z,-0.42
2019-01-31T05:49:37.579Z,-0.58
2019-01-31T05:52:40.306Z,-0.72
2019-01-31T05:55:42.870Z,-0.64
2019-01-31T05:58:45.543Z,-0.57
2019-01-31T06:01:49.315Z,-0.47
2019-01-31T06:04:53.941Z,-0.37
2019-01-31T06:07:56.612Z,-0.36
2019-01-31T06:11:07.119Z,-0.35
2019-01-31T06:14:04.194Z,-0.32
2019-01-31T06:17:06.829Z,-0.39
2019-01-31T06:20:11.954Z,-0.49
2019-01-31T06:23:15.564Z,-0.42
2019-01-31T06:26:18.169Z,-0.38
2019-01-31T06:29:20.836Z,-0.32
2019-01-31T06:32:23.415Z,-0.22
2019-01-31T06:35:25.984Z,-0.22
2019-01-31T06:38:28.605Z,-0.17
2019-01-31T06:41:31.170Z,-0.28
2019-01-31T06:44:33.887Z,-0.36
2019-01-31T06:47:36.584Z,-0.32
2019-01-31T06:50:39.170Z,-0.31
2019-01-31T06:53:41.759Z,-0.47
2019-01-31T06:56:44.410Z,-0.47
2019-01-31T06:59:47.027Z,-0.61
2019-01-31T07:02:50.046Z,-0.81
2019-01-31T07:05:52.621Z,-0.96
2019-01-31T07:08:55.185Z,-1.00
2019-01-31T07:11:57.889Z,-1.23
2019-01-31T07:15:00.450Z,-1.26
2019-01-31T07:18:03.029Z,-1.35
2019-01-31T07:21:05.640Z,-1.32
2019-01-31T07:24:08.301Z,-1.53
2019-01-31T07:27:10.949Z,-1.58
2019-01-31T07:30:14.573Z,-1.38
2019-01-31T07:33:17.138Z,-1.33
2019-01-31T07:36:19.750Z,-1.28
2019-01-31T07:39:22.380Z,-1.20
2019-01-31T07:42:25.083Z,-1.23
2019-01-31T07:45:29.223Z,-1.12
2019-01-31T07:48:32.062Z,-1.08
2019-01-31T07:51:34.882Z,-1.02
2019-01-31T07:54:38.430Z,-0.99
2019-01-31T07:57:41.070Z,-0.96
2019-01-31T08:00:43.690Z,-0.51
2019-01-31T08:03:46.430Z,-0.58
2019-01-31T08:06:49.258Z,-0.54
2019-01-31T08:09:51.816Z,-0.61
2019-01-31T08:12:54.625Z,-0.60
2019-01-31T08:15:57.295Z,-0.61
2019-01-31T08:18:59.996Z,-0.52
2019-01-31T08:22:02.703Z,-0.55
2019-01-31T08:25:05.770Z,-0.57
2019-01-31T08:28:08.647Z,-0.58
2019-01-31T08:31:11.159Z,-0.69
2019-01-31T08:34:13.795Z,-0.64
2019-01-31T08:37:16.471Z,-0.59
2019-01-31T08:40:19.271Z,-0.61
2019-01-31T08:43:22.726Z,-0.47
2019-01-31T08:46:25.381Z,-0.40
2019-01-31T08:49:28.033Z,-0.41
2019-01-31T08:52:30.741Z,-0.38
2019-01-31T08:55:33.466Z,-0.23
2019-01-31T08:58:36.185Z,-0.31
2019-01-31T09:01:38.897Z,-0.19
2019-01-31T09:04:41.620Z,-0.02
2019-01-31T09:07:44.198Z,0.07
2019-01-31T09:10:46.904Z,0.06
2019-01-31T09:13:49.605Z,0.20
2019-01-31T09:16:52.169Z,0.27
2019-01-31T09:19:54.791Z,0.48
2019-01-31T09:23:25.153Z,0.35
2019-01-31T09:27:11.828Z,0.64
2019-01-31T09:30:36.355Z,0.57
2019-01-31T09:33:48.004Z,0.59
2019-01-31T09:37:17.923Z,0.66
2019-01-31T09:41:08.396Z,1.20
2019-01-31T09:44:56.960Z,1.55
2019-01-31T09:48:10.050Z,1.28
2019-01-31T09:51:42.599Z,1.37
2019-01-31T09:55:03.826Z,1.42
2019-01-31T09:58:36.813Z,1.42
2019-01-31T10:02:36.739Z,1.22
2019-01-31T10:06:31.994Z,0.94
2019-01-31T10:10:12.921Z,0.65
2019-01-31T10:14:09.910Z,0.73
2019-01-31T10:18:06.479Z,0.69
2019-01-31T10:21:49.870Z,0.88
2019-01-31T10:25:45.372Z,0.87
2019-01-31T10:29:34.849Z,1.20
2019-01-31T10:33:11.209Z,1.36
2019-01-31T10:36:48.164Z,1.61
2019-01-31T10:40:11.490Z,1.70
2019-01-31T10:43:24.740Z,1.92
2019-01-31T10:46:50.118Z,1.91
2019-01-31T10:50:25.610Z,1.82
2019-01-31T10:54:01.548Z,1.92
2019-01-31T10:57:29.209Z,1.97
2019-01-31T11:00:59.548Z,2.09
2019-01-31T11:04:56.152Z,2.00
2019-01-31T11:08:40.500Z,2.22
2019-01-31T11:12:25.638Z,2.32
2019-01-31T11:16:05.713Z,3.18
2019-01-31T11:19:30.095Z,3.43
2019-01-31T11:23:04.219Z,3.14
2019-01-31T11:26:23.802Z,3.11
2019-01-31T11:29:45.812Z,2.94
2019-01-31T11:33:26.518Z,2.80
2019-01-31T11:37:23.162Z,2.64
2019-01-31T11:41:35.059Z,2.93
2019-01-31T11:45:18.253Z,2.90
2019-01-31T11:48:31.870Z,3.04
2019-01-31T11:52:32.243Z,3.15
2019-01-31T11:56:29.289Z,3.44
2019-01-31T11:59:31.978Z,3.35
2019-01-31T12:02:34.761Z,3.43
2019-01-31T12:05:37.416Z,3.55
2019-01-31T12:08:40.078Z,3.73
2019-01-31T12:11:42.682Z,3.52
2019-01-31T12:14:45.279Z,3.14
2019-01-31T12:17:47.840Z,3.13
2019-01-31T12:20:50.381Z,2.71
2019-01-31T12:23:53.009Z,2.53
2019-01-31T12:26:55.607Z,2.41
2019-01-31T12:29:58.318Z,2.50
2019-01-31T12:33:02.057Z,2.59
2019-01-31T12:36:05.178Z,2.69
2019-01-31T12:39:09.772Z,2.57
2019-01-31T12:42:13.341Z,2.40
2019-01-31T12:45:17.433Z,2.43
2019-01-31T12:48:20.023Z,2.43
2019-01-31T12:51:22.643Z,2.41
2019-01-31T12:54:25.333Z,2.60
2019-01-31T12:57:28.016Z,2.68
2019-01-31T13:00:30.604Z,2.80
2019-01-31T13:03:33.277Z,2.81
2019-01-31T13:06:35.872Z,3.00
2019-01-31T13:09:38.578Z,3.52
2019-01-31T13:12:48.428Z,3.33
2019-01-31T13:15:45.976Z,3.02
2019-01-31T13:18:48.602Z,2.96
2019-01-31T13:21:51.364Z,2.89
2019-01-31T13:24:54.169Z,3.00
2019-01-31T13:27:57.069Z,2.81
2019-01-31T13:30:59.687Z,3.05
2019-01-31T13:34:02.472Z,3.04
2019-01-31T13:37:05.288Z,2.99
2019-01-31T13:40:13.380Z,3.12
2019-01-31T13:43:17.172Z,3.31
2019-01-31T13:46:20.001Z,3.03
2019-01-31T13:49:22.746Z,3.31
2019-01-31T13:52:25.387Z,3.25
2019-01-31T13:55:29.372Z,3.04
2019-01-31T13:58:32.062Z,3.23
2019-01-31T14:01:34.627Z,3.24
2019-01-31T14:04:37.280Z,3.08
2019-01-31T14:07:40.159Z,3.10
2019-01-31T14:10:42.868Z,3.01
2019-01-31T14:13:45.628Z,3.03
2019-01-31T14:16:48.268Z,2.93
2019-01-31T14:19:50.944Z,3.04
2019-01-31T14:22:53.723Z,3.23
2019-01-31T14:25:56.272Z,3.46
2019-01-31T14:28:58.847Z,3.38
2019-01-31T14:32:01.396Z,3.54
2019-01-31T14:35:04.882Z,3.32
2019-01-31T14:38:07.727Z,3.48
2019-01-31T14:41:10.392Z,3.67
2019-01-31T14:44:20.182Z,3.55
2019-01-31T14:47:17.778Z,3.46
2019-01-31T14:50:23.443Z,3.52
2019-01-31T14:53:26.163Z,3.45
2019-01-31T14:56:28.744Z,3.16
2019-01-31T14:59:31.336Z,3.04
2019-01-31T15:02:33.983Z,3.06
2019-01-31T15:05:37.003Z,2.91
2019-01-31T15:08:39.783Z,2.93
2019-01-31T15:11:42.343Z,2.95
2019-01-31T15:14:45.065Z,2.99
2019-01-31T15:17:47.749Z,2.84
2019-01-31T15:20:50.532Z,2.73
2019-01-31T15:23:53.088Z,2.64
2019-01-31T15:26:55.692Z,2.72
2019-01-31T15:29:59.304Z,2.86
2019-01-31T15:33:03.804Z,2.91
2019-01-31T15:36:06.707Z,2.71
2019-01-31T15:39:09.403Z,2.70
2019-01-31T15:42:12.193Z,2.56
2019-01-31T15:45:14.939Z,2.61
2019-01-31T15:48:17.949Z,2.41
2019-01-31T15:51:20.529Z,2.44
2019-01-31T15:54:23.238Z,2.36
2019-01-31T15:57:26.028Z,2.37
2019-01-31T16:00:39.627Z,2.31
2019-01-31T16:03:43.411Z,2.17
2019-01-31T16:06:46.211Z,2.03
2019-01-31T16:09:48.953Z,2.00
2019-01-31T16:12:53.624Z,1.76
2019-01-31T16:15:56.136Z,1.68
2019-01-31T16:18:58.864Z,1.57
2019-01-31T16:22:01.554Z,1.64
2019-01-31T16:25:04.983Z,1.61
2019-01-31T16:28:07.958Z,1.66
2019-01-31T16:31:10.627Z,1.56
2019-01-31T16:34:13.316Z,1.48
2019-01-31T16:37:16.102Z,1.38
2019-01-31T16:40:18.946Z,1.46
2019-01-31T16:43:21.698Z,1.37
2019-01-31T16:46:24.253Z,1.34
2019-01-31T16:49:26.957Z,1.28
2019-01-31T16:52:30.719Z,1.34
2019-01-31T16:55:33.387Z,1.20
2019-01-31T16:58:36.022Z,1.21
2019-01-31T17:01:38.631Z,1.08
2019-01-31T17:04:41.293Z,0.97
2019-01-31T17:07:43.971Z,0.99
2019-01-31T17:10:47.782Z,0.91
2019-01-31T17:13:50.509Z,0.87
2019-01-31T17:16:54.161Z,0.87
2019-01-31T17:19:57.994Z,0.87
2019-01-31T17:23:00.653Z,0.89
2019-01-31T17:26:03.813Z,0.90
2019-01-31T17:29:06.455Z,0.87
2019-01-31T17:32:10.177Z,0.92
2019-01-31T17:35:12.884Z,0.98
2019-01-31T17:38:15.508Z,1.02
2019-01-31T17:41:19.003Z,1.09
2019-01-31T17:44:21.566Z,1.25
2019-01-31T17:47:25.153Z,1.29
2019-01-31T17:50:27.908Z,1.35
2019-01-31T17:53:30.512Z,1.39
2019-01-31T17:56:33.117Z,1.54
2019-01-31T17:59:35.765Z,1.55
2019-01-31T18:02:45.315Z,1.67
2019-01-31T18:05:42.932Z,1.68
2019-01-31T18:08:45.676Z,1.64
2019-01-31T18:11:48.327Z,1.65
2019-01-31T18:14:50.927Z,1.68
2019-01-31T18:17:53.516Z,1.61
2019-01-31T18:20:56.186Z,1.51
2019-01-31T18:23:58.959Z,1.54
2019-01-31T18:27:01.561Z,1.64
2019-01-31T18:30:06.969Z,1.55
2019-01-31T18:33:09.683Z,1.49
2019-01-31T18:36:12.296Z,1.53
2019-01-31T18:39:14.916Z,1.48
2019-01-31T18:42:17.736Z,1.42
2019-01-31T18:45:25.620Z,1.47
2019-01-31T18:48:28.385Z,1.51
2019-01-31T18:51:31.242Z,1.45
2019-01-31T18:54:34.106Z,1.49
2019-01-31T18:57:37.616Z,1.45
2019-01-31T19:00:43.118Z,1.43
2019-01-31T19:03:45.847Z,1.47
2019-01-31T19:06:48.422Z,1.51
2019-01-31T19:09:52.643Z,1.62
2019-01-31T19:12:55.528Z,1.37
2019-01-31T19:16:05.190Z,1.49
2019-01-31T19:19:03.084Z,1.52
2019-01-31T19:22:05.827Z,1.39
2019-01-31T19:25:08.961Z,1.36
2019-01-31T19:28:13.254Z,1.42
2019-01-31T19:31:16.083Z,1.33
2019-01-31T19:34:18.818Z,1.39
2019-01-31T19:37:21.499Z,1.52
2019-01-31T19:40:27.202Z,1.47
2019-01-31T19:43:32.846Z,1.42
2019-01-31T19:46:35.547Z,1.47
2019-01-31T19:49:38.700Z,1.49
2019-01-31T19:52:41.361Z,1.37
2019-01-31T19:55:44.051Z,1.36
2019-01-31T19:58:48.586Z,1.34
2019-01-31T20:01:51.328Z,1.32
2019-01-31T20:04:54.117Z,1.31
2019-01-31T20:07:57.158Z,1.23
2019-01-31T20:11:00.052Z,1.32
2019-01-31T20:14:02.899Z,1.29
2019-01-31T20:17:08.481Z,1.35
2019-01-31T20:20:19.526Z,1.32
2019-01-31T20:23:24.753Z,1.41
2019-01-31T20:26:30.573Z,1.25
2019-01-31T20:29:33.316Z,1.22
2019-01-31T20:32:36.232Z,1.08
2019-01-31T20:35:40.055Z,1.13
2019-01-31T20:38:44.938Z,1.14
2019-01-31T20:41:54.368Z,1.10
2019-01-31T20:44:52.138Z,1.14
2019-01-31T20:47:54.933Z,1.07
2019-01-31T20:50:57.802Z,1.19
2019-01-31T20:54:00.664Z,1.03
2019-01-31T20:57:03.442Z,0.88
2019-01-31T21:00:13.823Z,0.73
2019-01-31T21:03:19.852Z,0.65
2019-01-31T21:06:22.612Z,0.53
2019-01-31T21:09:28.690Z,0.57
2019-01-31T21:12:31.712Z,0.62
2019-01-31T21:15:34.581Z,0.72
2019-01-31T21:18:37.215Z,0.74
2019-01-31T21:21:40.010Z,0.76
2019-01-31T21:24:44.541Z,0.71
2019-01-31T21:27:48.265Z,0.63
2019-01-31T21:30:50.847Z,0.49
2019-01-31T21:33:53.581Z,0.58
2019-01-31T21:36:56.237Z,0.46
2019-01-31T21:39:58.982Z,0.47
2019-01-31T21:43:01.692Z,0.47
2019-01-31T21:46:04.538Z,0.49
2019-01-31T21:49:07.214Z,0.37
2019-01-31T21:52:10.059Z,0.33
2019-01-31T21:55:13.851Z,0.18
2019-01-31T21:58:18.378Z,0.16
2019-01-31T22:01:21.105Z,0.02
2019-01-31T22:04:23.911Z,-0.06
2019-01-31T22:07:26.577Z,-0.21
2019-01-31T22:10:29.404Z,-0.31
2019-01-31T22:13:32.083Z,-0.37
2019-01-31T22:16:34.752Z,-0.49
2019-01-31T22:19:37.547Z,-0.42
2019-01-31T22:22:40.166Z,-0.51
2019-01-31T22:25:42.905Z,-0.53
2019-01-31T22:28:45.661Z,-0.56
2019-01-31T22:31:48.418Z,-0.49
2019-01-31T22:34:51.136Z,-0.58
2019-01-31T22:37:54.005Z,-0.72
2019-01-31T22:40:56.720Z,-0.77
2019-01-31T22:43:59.337Z,-0.83
2019-01-31T22:47:02.065Z,-0.81
2019-01-31T22:50:06.040Z,-0.82
2019-01-31T22:53:08.840Z,-1.01
2019-01-31T22:56:11.446Z,-1.28
2019-01-31T22:59:14.312Z,-1.11
2019-01-31T23:02:17.040Z,-1.21
2019-01-31T23:05:19.623Z,-1.18
2019-01-31T23:08:23.475Z,-1.27
2019-01-31T23:11:26.719Z,-1.17
2019-01-31T23:14:30.444Z,-1.11
2019-01-31T23:17:37.318Z,-1.13
2019-01-31T23:20:37.609Z,-1.21
2019-01-31T23:23:40.322Z,-1.43
2019-01-31T23:26:42.920Z,-1.50
2019-01-31T23:29:45.615Z,-1.40
2019-01-31T23:32:48.264Z,-1.42
2019-01-31T23:35:50.939Z,-1.31
2019-01-31T23:38:53.654Z,-1.29
2019-01-31T23:41:56.381Z,-1.31
2019-01-31T23:44:59.086Z,-1.30
2019-01-31T23:48:01.701Z,-1.27
2019-01-31T23:51:04.484Z,-1.26
2019-01-31T23:54:07.269Z,-1.42
2019-01-31T23:57:09.905Z,-1.25
